Time;durP1;ratioP1;P1;durP2;ratioP2;P2;SDS_P1;SDS_P2;PMS_P1;PMS_P2;Temp;Humidity;BMP_temperature;BMP_pressure;BME280_temperature;BME280_humidity;BME280_pressure;Samples;Min_cycle;Max_cycle;Signal;HPM_P1;HPM_P2
2022/11/07 00:00:27;;;;;;;6.47;2.00;;;27.40;94.70;;;;;;5067508;28;20024;-37
2022/11/07 00:02:54;;;;;;;7.50;2.08;;;27.40;94.70;;;;;;5067878;28;20036;-41
2022/11/07 00:05:24;;;;;;;6.45;1.80;;;27.40;94.80;;;;;;5068106;28;20037;-46
2022/11/07 00:07:50;;;;;;;9.48;1.90;;;27.40;94.70;;;;;;5067730;28;20037;-46
2022/11/07 00:10:17;;;;;;;4.78;1.50;;;27.40;94.70;;;;;;5067647;28;20040;-40
2022/11/07 00:12:44;;;;;;;9.02;1.80;;;27.40;94.70;;;;;;5073973;28;20044;-41
2022/11/07 00:15:11;;;;;;;7.05;1.70;;;27.40;94.80;;;;;;5086787;28;20059;-44
2022/11/07 00:17:37;;;;;;;7.47;2.38;;;27.30;94.80;;;;;;5086554;28;20031;-46
2022/11/07 00:20:04;;;;;;;7.88;2.22;;;27.30;94.80;;;;;;5087271;28;20029;-44
2022/11/07 00:22:31;;;;;;;4.38;1.98;;;27.30;94.80;;;;;;5087155;28;20071;-39
2022/11/07 00:24:57;;;;;;;7.55;2.45;;;27.30;94.80;;;;;;5087098;28;20016;-45
2022/11/07 00:27:24;;;;;;;9.00;2.30;;;27.30;94.80;;;;;;5087127;28;20056;-45
2022/11/07 00:29:50;;;;;;;5.30;1.88;;;27.30;94.80;;;;;;5086942;28;20032;-43
2022/11/07 00:32:17;;;;;;;7.55;1.90;;;27.30;94.90;;;;;;5087527;28;20234;-47
2022/11/07 00:34:43;;;;;;;6.22;1.98;;;27.30;95.00;;;;;;5086873;28;20032;-42
2022/11/07 00:37:10;;;;;;;7.15;2.88;;;27.30;95.00;;;;;;5086660;28;20016;-44
2022/11/07 00:39:37;;;;;;;7.30;2.83;;;27.30;95.00;;;;;;5087001;28;20316;-51
2022/11/07 00:42:03;;;;;;;9.52;2.95;;;27.30;95.00;;;;;;5087294;28;20095;-46
2022/11/07 00:44:30;;;;;;;7.60;4.10;;;27.30;95.00;;;;;;5086688;28;20221;-38
2022/11/07 00:46:57;;;;;;;10.90;5.45;;;27.20;95.00;;;;;;5087044;28;20032;-40
2022/11/07 00:49:23;;;;;;;8.48;4.95;;;27.20;95.00;;;;;;5085543;28;20023;-39
2022/11/07 00:51:50;;;;;;;7.85;4.03;;;27.20;95.10;;;;;;5086915;28;20039;-44
2022/11/07 00:54:16;;;;;;;5.50;3.33;;;27.20;95.10;;;;;;5085373;28;20035;-43
2022/11/07 00:56:43;;;;;;;6.53;3.22;;;27.20;95.10;;;;;;5087022;28;20370;-44
2022/11/07 00:59:09;;;;;;;6.78;3.70;;;27.20;95.20;;;;;;5085128;28;20024;-41
2022/11/07 01:01:36;;;;;;;5.85;3.03;;;27.20;95.20;;;;;;5085393;28;20292;-43
2022/11/07 01:06:47;;;;;;;8.38;3.65;;;27.20;95.10;;;;;;5086651;28;20035;-42
2022/11/07 01:09:20;;;;;;;7.03;3.33;;;27.20;95.10;;;;;;5086206;28;20047;-45
2022/11/07 01:11:47;;;;;;;9.00;3.53;;;27.20;95.10;;;;;;5085260;28;20056;-37
2022/11/07 01:14:16;;;;;;;6.55;3.10;;;27.10;95.10;;;;;;5086132;28;20024;-37
2022/11/07 01:16:43;;;;;;;6.28;3.55;;;27.10;95.10;;;;;;5086631;28;20315;-44
2022/11/07 01:19:10;;;;;;;8.10;4.07;;;27.10;95.10;;;;;;5086522;28;20027;-39
2022/11/07 01:21:38;;;;;;;5.18;3.92;;;27.20;95.20;;;;;;5085958;28;20269;-40
2022/11/07 01:24:07;;;;;;;8.55;4.13;;;27.20;95.20;;;;;;5084860;28;20036;-43
2022/11/07 01:26:34;;;;;;;7.65;4.68;;;27.10;95.20;;;;;;5086326;28;20032;-45
2022/11/07 01:29:00;;;;;;;8.73;4.20;;;27.10;95.20;;;;;;5086177;28;20336;-40
2022/11/07 01:31:30;;;;;;;5.40;3.67;;;27.10;95.20;;;;;;5085815;28;20040;-46
2022/11/07 01:33:57;;;;;;;7.43;3.20;;;27.10;95.20;;;;;;5085564;28;20058;-46
2022/11/07 01:36:24;;;;;;;4.68;2.75;;;27.10;95.20;;;;;;5085817;28;20039;-48
2022/11/07 01:38:51;;;;;;;4.85;2.80;;;27.10;95.30;;;;;;5086096;28;20008;-45
2022/11/07 01:41:21;;;;;;;7.93;2.95;;;27.10;95.30;;;;;;5086304;28;20029;-42
2022/11/07 01:43:48;;;;;;;5.00;2.30;;;27.10;95.30;;;;;;5085844;28;20084;-39
2022/11/07 01:46:15;;;;;;;4.20;2.20;;;27.10;95.30;;;;;;5086032;28;20043;-44
2022/11/07 01:48:47;;;;;;;5.97;2.10;;;27.10;95.20;;;;;;5084298;28;20054;-40
2022/11/07 01:51:15;;;;;;;5.10;1.88;;;27.10;95.20;;;;;;5083728;28;20040;-41
2022/11/07 01:53:42;;;;;;;4.50;2.00;;;27.10;95.20;;;;;;5085415;28;20071;-39
2022/11/07 01:56:14;;;;;;;5.95;2.08;;;27.10;95.20;;;;;;5085461;28;20042;-41
2022/11/07 01:58:41;;;;;;;;;;;27.10;95.20;;;;;;5085759;28;20188;-43
2022/11/07 02:01:13;;;;;;;7.88;2.05;;;27.00;95.20;;;;;;5085369;28;19915;-47
2022/11/07 02:03:40;;;;;;;;;;;27.00;95.20;;;;;;5085704;28;20105;-43
2022/11/07 02:06:14;;;;;;;8.82;2.40;;;27.00;95.20;;;;;;5085128;28;20083;-40
2022/11/07 02:08:42;;;;;;;4.38;2.00;;;26.90;95.20;;;;;;5084833;28;20063;-40
2022/11/07 02:11:11;;;;;;;8.10;2.30;;;27.00;95.20;;;;;;5085329;28;20028;-38
2022/11/07 02:13:37;;;;;;;6.03;2.03;;;27.00;95.10;;;;;;5084913;28;20107;-40
2022/11/07 02:16:04;;;;;;;4.18;2.10;;;27.00;95.10;;;;;;5084961;28;20255;-42
2022/11/07 02:18:35;;;;;;;5.97;1.73;;;27.00;95.20;;;;;;5083946;28;20185;-40
2022/11/07 02:21:16;;;;;;;5.13;1.98;;;27.00;95.10;;;;;;5084717;28;20028;-42
2022/11/07 02:24:16;;;;;;;9.02;2.30;;;27.00;95.20;;;;;;5083371;28;20055;-39
2022/11/07 02:26:44;;;;;;;8.52;2.10;;;26.90;95.10;;;;;;5085043;28;20037;-41
2022/11/07 02:29:11;;;;;;;5.63;1.67;;;26.90;95.10;;;;;;5084696;28;20020;-43
2022/11/07 02:31:38;;;;;;;5.65;1.88;;;26.90;95.10;;;;;;5084863;28;20240;-44
2022/11/07 02:34:04;;;;;;;6.60;2.05;;;26.90;95.10;;;;;;5084284;28;20035;-39
2022/11/07 02:36:31;;;;;;;10.63;2.40;;;26.90;95.10;;;;;;5084618;28;20268;-43
2022/11/07 02:38:59;;;;;;;4.68;1.67;;;26.90;95.10;;;;;;5084497;28;20028;-42
2022/11/07 02:41:30;;;;;;;6.60;1.98;;;26.90;95.10;;;;;;5083440;28;20023;-42
2022/11/07 02:44:03;;;;;;;7.93;1.95;;;26.90;95.10;;;;;;5084476;28;20393;-42
2022/11/07 02:46:31;;;;;;;5.28;1.98;;;26.90;95.10;;;;;;5084584;28;20073;-40
2022/11/07 02:49:00;;;;;;;5.97;2.00;;;26.90;95.10;;;;;;5084339;28;20349;-51
2022/11/07 02:51:27;;;;;;;4.53;1.90;;;26.90;95.10;;;;;;5084660;28;20035;-44
2022/11/07 02:53:53;;;;;;;4.38;1.60;;;26.90;95.10;;;;;;5084289;28;20313;-39
2022/11/07 02:56:20;;;;;;;4.95;1.65;;;26.90;95.10;;;;;;5084538;28;20300;-46
2022/11/07 02:58:47;;;;;;;5.00;1.63;;;26.90;95.30;;;;;;5084215;28;20047;-44
2022/11/07 03:01:14;;;;;;;5.90;1.92;;;26.90;95.10;;;;;;5083170;28;20063;-40
2022/11/07 03:03:43;;;;;;;4.55;1.33;;;26.90;95.10;;;;;;5084203;28;20042;-39
2022/11/07 03:06:15;;;;;;;2.90;1.40;;;26.90;95.10;;;;;;5084012;28;20321;-46
2022/11/07 03:08:42;;;;;;;4.97;1.38;;;26.90;95.10;;;;;;5083964;28;20032;-44
2022/11/07 03:11:10;;;;;;;5.10;1.40;;;26.80;95.00;;;;;;5084309;28;20056;-38
2022/11/07 03:13:37;;;;;;;6.05;1.30;;;26.80;95.10;;;;;;5083840;28;20044;-40
2022/11/07 03:16:06;;;;;;;5.00;1.50;;;26.90;95.10;;;;;;5083165;28;20062;-42
2022/11/07 03:18:33;;;;;;;5.00;1.52;;;26.80;95.00;;;;;;5083928;28;20032;-41
2022/11/07 03:21:00;;;;;;;5.13;1.45;;;26.80;95.00;;;;;;5084105;28;20029;-42
2022/11/07 03:23:26;;;;;;;7.65;1.45;;;26.80;95.00;;;;;;5083595;28;20052;-42
2022/11/07 03:25:53;;;;;;;5.05;1.58;;;26.80;95.00;;;;;;5084106;28;20086;-47
2022/11/07 03:28:19;;;;;;;3.38;1.40;;;26.80;95.00;;;;;;5083808;28;20028;-46
2022/11/07 03:30:46;;;;;;;3.38;1.20;;;26.80;95.00;;;;;;5083834;28;20037;-41
2022/11/07 03:33:13;;;;;;;3.95;1.33;;;26.80;95.00;;;;;;5084029;28;20051;-42
2022/11/07 03:35:39;;;;;;;6.65;2.00;;;26.80;95.00;;;;;;5082842;28;20032;-42
2022/11/07 03:38:06;;;;;;;5.65;1.63;;;26.80;95.00;;;;;;5083643;28;20050;-41
2022/11/07 03:40:32;;;;;;;5.20;1.60;;;26.80;95.10;;;;;;5083905;28;20029;-41
2022/11/07 03:42:59;;;;;;;7.13;1.83;;;26.80;95.10;;;;;;5083807;28;20017;-40
2022/11/07 03:45:25;;;;;;;5.57;1.70;;;26.80;95.10;;;;;;5083708;28;20058;-45
2022/11/07 03:47:52;;;;;;;7.22;1.70;;;26.80;95.10;;;;;;5083819;28;20036;-40
2022/11/07 03:50:20;;;;;;;3.10;1.52;;;26.80;95.20;;;;;;5083799;28;20052;-45
2022/11/07 03:52:48;;;;;;;6.30;1.98;;;26.70;95.20;;;;;;5083557;28;20029;-40
2022/11/07 03:55:16;;;;;;;4.90;1.45;;;26.70;95.10;;;;;;5083893;28;20028;-39
2022/11/07 03:57:44;;;;;;;4.90;1.55;;;26.70;95.10;;;;;;5083589;28;20028;-40
2022/11/07 04:00:13;;;;;;;3.50;1.67;;;26.70;95.10;;;;;;5083449;28;20024;-39
2022/11/07 04:02:39;;;;;;;5.80;1.60;;;26.70;95.20;;;;;;5083595;28;20059;-39
2022/11/07 04:05:06;;;;;;;6.68;1.70;;;26.70;95.20;;;;;;5083571;28;20032;-40
2022/11/07 04:07:33;;;;;;;5.65;1.90;;;26.70;95.20;;;;;;5083415;28;20024;-38
2022/11/07 04:10:00;;;;;;;5.03;1.42;;;26.70;95.20;;;;;;5083406;28;20248;-39
2022/11/07 04:17:56;;;;;;;5.05;1.23;;;26.70;95.20;;;;;;5083431;28;20126;-44
2022/11/07 04:20:23;;;;;;;5.55;1.75;;;26.60;95.30;;;;;;5083320;28;20032;-48
2022/11/07 04:22:49;;;;;;;6.13;1.50;;;26.70;95.40;;;;;;5083283;28;20064;-50
2022/11/07 04:25:16;;;;;;;7.07;1.40;;;26.70;95.40;;;;;;5083388;28;20065;-44
2022/11/07 04:27:43;;;;;;;5.10;1.52;;;26.70;95.40;;;;;;5084493;28;20029;-45
2022/11/07 04:30:28;;;;;;;4.25;1.30;;;26.60;95.30;;;;;;5087004;28;20064;-40
2022/11/07 04:32:57;;;;;;;4.72;1.67;;;26.70;95.40;;;;;;5086756;28;20062;-47
2022/11/07 04:35:29;;;;;;;7.38;1.35;;;26.60;95.30;;;;;;5086956;28;20024;-45
2022/11/07 04:37:56;;;;;;;;;;;26.60;95.30;;;;;;5087369;28;20039;-46
2022/11/07 04:40:22;;;;;;;2.97;1.33;;;26.60;95.40;;;;;;5086870;28;20184;-45
2022/11/07 04:42:49;;;;;;;4.63;1.25;;;26.60;95.50;;;;;;5086931;28;20062;-44
2022/11/07 04:45:17;;;;;;;4.05;1.42;;;26.60;95.40;;;;;;5087002;28;20033;-43
2022/11/07 04:47:43;;;;;;;6.43;1.70;;;26.60;95.40;;;;;;5085484;28;20036;-42
2022/11/07 04:50:13;;;;;;;5.35;1.40;;;26.60;95.60;;;;;;5086687;28;20039;-46
2022/11/07 04:52:39;;;;;;;5.90;1.50;;;26.60;95.20;;;;;;5086640;28;20036;-44
2022/11/07 04:55:09;;;;;;;4.90;1.55;;;26.60;95.20;;;;;;5086460;28;20212;-40
2022/11/07 04:57:35;;;;;;;5.07;1.45;;;26.60;95.10;;;;;;5086571;28;20032;-45
2022/11/07 05:00:03;;;;;;;2.88;1.25;;;26.60;95.00;;;;;;5086625;28;20023;-42
2022/11/07 05:02:29;;;;;;;4.05;1.45;;;26.60;95.00;;;;;;5086333;28;20032;-40
2022/11/07 05:04:56;;;;;;;8.20;4.72;;;26.60;94.80;;;;;;5086423;28;20189;-42
2022/11/07 05:07:23;;;;;;;10.23;8.43;;;26.60;94.80;;;;;;5086401;28;20032;-41
2022/11/07 05:09:49;;;;;;;18.48;13.32;;;26.60;94.80;;;;;;5086294;28;20219;-37
2022/11/07 05:12:16;;;;;;;14.80;13.02;;;26.60;94.80;;;;;;5086775;28;20288;-39
2022/11/07 05:14:42;;;;;;;17.95;14.57;;;26.60;94.80;;;;;;5086281;28;20040;-38
2022/11/07 05:17:16;;;;;;;13.93;11.45;;;26.60;94.70;;;;;;5086045;28;20020;-40
2022/11/07 05:19:43;;;;;;;10.13;9.07;;;26.60;94.70;;;;;;5086169;28;20330;-38
2022/11/07 05:24:55;;;;;;;10.85;7.57;;;26.50;94.80;;;;;;5086056;28;20051;-41
2022/11/07 05:27:23;;;;;;;10.57;7.20;;;26.50;94.80;;;;;;5085999;28;20056;-47
2022/11/07 05:29:49;;;;;;;9.45;6.13;;;26.50;94.80;;;;;;5085807;28;20250;-41
2022/11/07 05:32:17;;;;;;;8.60;5.68;;;26.50;94.80;;;;;;5086527;28;20028;-38
2022/11/07 05:34:43;;;;;;;5.35;4.68;;;26.50;94.80;;;;;;5085782;28;20032;-41
2022/11/07 05:37:11;;;;;;;8.82;4.60;;;26.50;94.80;;;;;;5085537;28;20332;-50
2022/11/07 05:39:38;;;;;;;6.20;3.33;;;26.50;94.90;;;;;;5085480;28;20257;-47
2022/11/07 05:42:05;;;;;;;7.03;3.58;;;26.50;94.90;;;;;;5086204;28;20025;-49
2022/11/07 05:44:31;;;;;;;7.53;2.78;;;26.50;94.90;;;;;;5085637;28;20087;-45
2022/11/07 05:46:59;;;;;;;7.18;2.50;;;26.50;94.90;;;;;;5086182;28;20032;-45
2022/11/07 05:49:26;;;;;;;5.85;2.50;;;26.50;95.10;;;;;;5085644;28;20028;-44
2022/11/07 05:51:53;;;;;;;8.90;2.25;;;26.50;95.10;;;;;;5085875;28;20041;-44
2022/11/07 05:54:19;;;;;;;7.97;1.95;;;26.50;95.10;;;;;;5085356;28;20050;-38
2022/11/07 05:56:46;;;;;;;4.93;1.98;;;26.50;95.20;;;;;;5085424;28;20204;-45
2022/11/07 05:59:13;;;;;;;4.22;1.90;;;26.50;95.20;;;;;;5085265;28;20304;-49
2022/11/07 06:01:40;;;;;;;4.35;2.08;;;26.50;95.20;;;;;;5085857;28;20029;-51
2022/11/07 06:04:07;;;;;;;7.85;1.98;;;26.40;95.20;;;;;;5085199;28;20056;-45
2022/11/07 06:06:33;;;;;;;6.95;1.80;;;26.40;95.20;;;;;;5085370;28;20028;-53
2022/11/07 06:09:00;;;;;;;3.70;1.52;;;26.40;95.20;;;;;;5085278;28;20031;-49
2022/11/07 06:11:26;;;;;;;5.03;1.42;;;26.40;95.20;;;;;;5085483;28;20028;-45
2022/11/07 06:13:53;;;;;;;6.70;1.50;;;26.40;95.20;;;;;;5084844;28;20020;-45
2022/11/07 06:16:20;;;;;;;5.95;1.73;;;26.40;95.30;;;;;;5085294;28;20028;-44
2022/11/07 06:18:48;;;;;;;3.67;1.58;;;26.40;95.30;;;;;;5085257;28;20043;-42
2022/11/07 06:21:15;;;;;;;8.68;1.83;;;26.40;95.20;;;;;;5085039;28;20035;-41
2022/11/07 06:23:42;;;;;;;6.18;1.40;;;26.40;95.20;;;;;;5084728;28;20048;-46
2022/11/07 06:26:09;;;;;;;5.25;1.40;;;26.40;95.20;;;;;;5085020;28;20055;-42
2022/11/07 06:28:36;;;;;;;6.78;1.30;;;26.40;95.20;;;;;;5084743;28;20043;-39
2022/11/07 06:31:04;;;;;;;5.32;1.45;;;26.40;95.20;;;;;;5085017;28;20024;-42
2022/11/07 06:33:31;;;;;;;7.28;1.58;;;26.40;95.20;;;;;;5085007;28;20039;-39
2022/11/07 06:36:09;;;;;;;5.93;1.40;;;26.40;95.20;;;;;;5084761;28;20028;-40
2022/11/07 06:38:37;;;;;;;8.18;1.70;;;26.40;95.30;;;;;;5084838;28;20224;-52
2022/11/07 06:41:08;;;;;;;3.25;1.13;;;26.40;95.30;;;;;;5084735;28;20082;-41
2022/11/07 06:43:35;;;;;;;5.78;1.67;;;26.40;95.20;;;;;;5084448;28;20025;-38
2022/11/07 06:46:07;;;;;;;8.60;1.67;;;26.30;95.20;;;;;;5084740;28;20042;-39
2022/11/07 06:48:34;;;;;;;;;;;26.30;95.30;;;;;;5084706;28;20048;-43
2022/11/07 06:51:02;;;;;;;6.00;1.30;;;26.30;95.20;;;;;;5083713;28;19938;-42
2022/11/07 06:53:28;;;;;;;7.55;1.27;;;26.30;95.20;;;;;;5084291;28;20013;-39
2022/11/07 06:55:55;;;;;;;6.70;1.20;;;26.30;95.10;;;;;;5084462;28;20024;-42
2022/11/07 06:58:22;;;;;;;4.13;1.38;;;26.20;95.00;;;;;;5084331;28;20127;-48
2022/11/07 07:00:49;;;;;;;3.65;1.00;;;26.30;95.00;;;;;;5084409;28;20091;-42
2022/11/07 07:03:15;;;;;;;16.95;1.48;;;26.20;94.80;;;;;;5084438;28;20039;-48
2022/11/07 07:05:42;;;;;;;5.15;1.30;;;26.20;94.80;;;;;;5084301;28;20035;-41
2022/11/07 07:08:11;;;;;;;3.72;1.00;;;26.20;94.80;;;;;;5084141;28;20030;-39
2022/11/07 07:10:42;;;;;;;3.72;0.90;;;26.20;94.70;;;;;;5084166;28;20213;-44
2022/11/07 07:13:08;;;;;;;5.40;1.10;;;26.20;94.70;;;;;;5084020;28;20020;-45
2022/11/07 07:15:35;;;;;;;4.97;1.17;;;26.20;94.60;;;;;;5084196;28;20036;-48
2022/11/07 07:18:03;;;;;;;9.07;1.42;;;26.20;94.60;;;;;;5083980;28;20016;-55
2022/11/07 07:20:30;;;;;;;5.70;1.13;;;26.20;94.60;;;;;;5084050;28;20016;-48
2022/11/07 07:22:57;;;;;;;7.53;1.10;;;26.10;94.60;;;;;;5083806;28;20278;-48
2022/11/07 07:25:24;;;;;;;4.05;1.00;;;26.10;94.60;;;;;;5083940;28;20122;-45
2022/11/07 07:27:50;;;;;;;3.63;1.10;;;26.10;94.60;;;;;;5084175;28;20228;-42
2022/11/07 07:30:17;;;;;;;6.07;1.10;;;26.10;94.60;;;;;;5083939;28;20027;-46
2022/11/07 07:32:43;;;;;;;3.92;1.20;;;26.10;94.60;;;;;;5083859;28;20079;-41
2022/11/07 07:35:10;;;;;;;5.57;1.40;;;26.10;94.50;;;;;;5083740;28;20036;-44
2022/11/07 07:37:36;;;;;;;8.63;1.33;;;26.10;94.50;;;;;;5083762;28;20017;-48
2022/11/07 07:40:03;;;;;;;3.55;1.20;;;26.10;94.50;;;;;;5083829;28;20340;-51
2022/11/07 07:42:30;;;;;;;6.45;1.02;;;26.10;94.50;;;;;;5083691;28;20366;-44
2022/11/07 07:44:56;;;;;;;4.30;1.10;;;26.10;94.60;;;;;;5083792;28;20261;-51
2022/11/07 07:47:23;;;;;;;2.58;1.10;;;26.00;94.50;;;;;;5083735;28;20217;-49
2022/11/07 07:49:50;;;;;;;4.57;1.10;;;26.00;94.50;;;;;;5083688;28;20212;-47
2022/11/07 07:52:16;;;;;;;2.53;1.02;;;26.00;94.50;;;;;;5084207;28;20043;-49
2022/11/07 07:54:43;;;;;;;6.03;1.10;;;26.00;94.50;;;;;;5083635;28;20044;-52
2022/11/07 07:57:09;;;;;;;4.30;1.13;;;26.00;94.50;;;;;;5084009;28;20057;-41
2022/11/07 07:59:36;;;;;;;8.48;1.40;;;26.00;94.60;;;;;;5083731;28;20013;-42
2022/11/07 08:02:02;;;;;;;7.38;1.42;;;26.00;94.50;;;;;;5084403;28;20048;-40
2022/11/07 08:04:29;;;;;;;4.10;1.20;;;26.00;94.60;;;;;;5087515;28;20040;-42
2022/11/07 08:06:55;;;;;;;7.20;1.27;;;26.00;94.80;;;;;;5087453;28;20324;-42
2022/11/07 08:09:22;;;;;;;7.32;1.30;;;26.00;94.50;;;;;;5087499;28;20095;-40
2022/11/07 08:11:48;;;;;;;4.38;0.98;;;26.00;94.60;;;;;;5087783;28;20017;-44
2022/11/07 08:14:15;;;;;;;3.47;1.02;;;26.00;94.60;;;;;;5087242;28;20091;-39
2022/11/07 08:16:41;;;;;;;6.25;1.15;;;26.00;94.60;;;;;;5087863;28;20025;-48
2022/11/07 08:19:08;;;;;;;3.85;1.20;;;25.90;94.60;;;;;;5087149;28;20028;-40
2022/11/07 08:21:34;;;;;;;7.47;1.20;;;25.90;94.60;;;;;;5087511;28;20208;-45
2022/11/07 08:24:02;;;;;;;4.55;1.00;;;25.90;94.60;;;;;;5087165;28;20056;-42
2022/11/07 08:26:29;;;;;;;5.05;1.23;;;25.90;94.60;;;;;;5087283;28;20032;-43
2022/11/07 08:28:55;;;;;;;9.70;1.17;;;25.90;94.60;;;;;;5087050;28;20039;-42
2022/11/07 08:31:22;;;;;;;6.03;1.27;;;25.90;94.60;;;;;;5087312;28;20060;-41
2022/11/07 08:33:48;;;;;;;3.47;1.00;;;25.90;94.60;;;;;;5086937;28;20029;-45
2022/11/07 08:36:15;;;;;;;4.05;1.10;;;25.90;94.60;;;;;;5087355;28;20033;-47
2022/11/07 08:38:42;;;;;;;6.07;1.13;;;25.90;94.60;;;;;;5087033;28;20073;-49
2022/11/07 08:41:08;;;;;;;5.40;1.20;;;25.90;94.60;;;;;;5087149;28;20025;-49
2022/11/07 08:43:35;;;;;;;8.52;1.20;;;25.90;94.60;;;;;;5086793;28;20044;-51
2022/11/07 08:46:01;;;;;;;5.88;1.20;;;25.90;94.60;;;;;;5087145;28;20301;-50
2022/11/07 08:48:28;;;;;;;4.13;1.30;;;25.80;94.60;;;;;;5086852;28;20039;-52
2022/11/07 08:50:56;;;;;;;4.03;1.40;;;25.80;94.60;;;;;;5086769;28;20028;-42
2022/11/07 08:53:24;;;;;;;8.95;1.30;;;25.80;94.60;;;;;;5086548;28;20028;-43
2022/11/07 08:55:51;;;;;;;5.90;1.30;;;25.80;94.60;;;;;;5086856;28;20293;-37
2022/11/07 08:58:18;;;;;;;4.10;1.10;;;25.80;94.60;;;;;;5086449;28;20025;-38
2022/11/07 09:00:45;;;;;;;6.38;1.00;;;25.80;94.60;;;;;;5070565;28;20264;-40
2022/11/07 09:03:12;;;;;;;5.55;1.25;;;25.80;94.50;;;;;;5066449;28;20028;-40
2022/11/07 09:05:39;;;;;;;4.78;1.30;;;25.80;94.50;;;;;;5066331;28;20032;-39
2022/11/07 09:08:06;;;;;;;5.28;1.25;;;25.80;94.50;;;;;;5066604;28;20212;-42
2022/11/07 09:10:33;;;;;;;3.92;1.10;;;25.70;94.40;;;;;;5066343;28;20041;-43
2022/11/07 09:12:59;;;;;;;8.80;1.20;;;25.70;94.50;;;;;;5065892;28;20127;-42
2022/11/07 09:15:26;;;;;;;3.58;1.00;;;25.70;94.50;;;;;;5065519;28;20075;-41
2022/11/07 09:17:52;;;;;;;4.13;1.20;;;25.70;94.50;;;;;;5066250;28;20025;-42
2022/11/07 09:20:19;;;;;;;2.97;0.90;;;25.80;94.40;;;;;;5066072;28;20024;-39
2022/11/07 09:22:45;;;;;;;5.47;1.38;;;25.80;94.40;;;;;;5065908;28;20055;-46
2022/11/07 09:25:12;;;;;;;4.78;1.02;;;25.70;94.30;;;;;;5066252;28;20025;-43
2022/11/07 09:27:39;;;;;;;4.30;1.35;;;25.70;94.30;;;;;;5065844;28;20225;-43
2022/11/07 09:30:06;;;;;;;5.60;1.05;;;25.70;94.20;;;;;;5065880;28;20013;-39
2022/11/07 09:32:33;;;;;;;3.75;1.10;;;25.70;94.10;;;;;;5066033;28;20033;-42
2022/11/07 09:35:00;;;;;;;6.30;1.20;;;25.70;94.00;;;;;;5065619;28;20032;-42
2022/11/07 09:37:27;;;;;;;4.45;1.30;;;25.70;94.00;;;;;;5065729;28;20025;-38
2022/11/07 09:39:53;;;;;;;4.43;1.20;;;25.70;94.00;;;;;;5065727;28;20071;-45
2022/11/07 09:42:26;;;;;;;4.93;1.13;;;25.70;93.90;;;;;;5065608;28;20021;-43
2022/11/07 09:45:00;;;;;;;5.43;1.30;;;25.70;93.90;;;;;;5065612;28;20060;-38
2022/11/07 09:47:40;;;;;;;2.90;1.00;;;25.70;94.20;;;;;;5065559;28;20035;-39
2022/11/07 09:50:25;;;;;;;5.57;1.48;;;25.70;94.00;;;;;;5065612;28;20040;-41
2022/11/07 09:52:57;;;;;;;3.63;1.25;;;25.70;93.90;;;;;;5065273;28;20317;-47
2022/11/07 09:55:34;;;;;;;2.60;1.00;;;25.60;93.90;;;;;;5065536;28;20213;-43
2022/11/07 09:58:19;;;;;;;2.97;1.10;;;25.60;94.00;;;;;;5065282;28;20020;-40
2022/11/07 10:00:46;;;;;;;3.30;1.10;;;25.70;94.10;;;;;;5065569;28;20059;-39
2022/11/07 10:03:13;;;;;;;4.10;1.33;;;25.60;94.10;;;;;;5065284;28;20040;-44
2022/11/07 10:06:10;;;;;;;4.28;1.20;;;25.60;94.10;;;;;;5065323;28;20285;-41
2022/11/07 10:08:44;;;;;;;7.20;1.10;;;25.60;94.10;;;;;;5065290;28;20191;-43
2022/11/07 10:11:35;;;;;;;3.47;1.30;;;25.60;94.10;;;;;;5065322;28;20029;-48
2022/11/07 10:14:24;;;;;;;9.70;1.20;;;25.50;94.10;;;;;;5064828;28;20237;-53
2022/11/07 10:16:50;;;;;;;7.97;1.30;;;25.60;94.10;;;;;;5065375;28;20316;-56
2022/11/07 10:19:30;;;;;;;6.43;1.15;;;25.60;94.10;;;;;;5071459;28;20181;-54
2022/11/07 10:22:21;;;;;;;8.38;1.33;;;25.60;94.10;;;;;;5082988;28;20261;-48
2022/11/07 10:25:25;;;;;;;5.82;1.15;;;25.50;94.10;;;;;;5084910;28;20029;-45
2022/11/07 10:28:18;;;;;;;4.55;1.48;;;25.50;94.00;;;;;;5085827;28;20181;-43
2022/11/07 10:30:50;;;;;;;7.53;1.55;;;25.50;94.00;;;;;;5085075;28;20058;-40
2022/11/07 10:33:50;;;;;;;7.90;1.40;;;25.50;94.10;;;;;;5084414;28;20036;-40
2022/11/07 10:36:25;;;;;;;8.88;1.15;;;25.50;94.10;;;;;;5085129;28;20028;-47
2022/11/07 10:38:52;;;;;;;4.30;1.27;;;25.50;94.00;;;;;;5085253;28;20031;-39
2022/11/07 10:41:21;;;;;;;8.10;1.40;;;25.50;94.00;;;;;;5085119;28;20091;-41
2022/11/07 10:44:01;;;;;;;4.70;1.45;;;25.50;94.10;;;;;;5084887;28;20021;-43
2022/11/07 10:46:35;;;;;;;4.15;1.30;;;25.50;94.10;;;;;;5085236;28;20040;-42
2022/11/07 10:49:02;;;;;;;5.65;1.15;;;25.50;94.10;;;;;;5085065;28;20039;-43
2022/11/07 10:51:40;;;;;;;7.60;1.33;;;25.50;94.20;;;;;;5085011;28;20138;-42
2022/11/07 10:54:18;;;;;;;5.07;1.10;;;25.50;94.20;;;;;;5084976;28;20031;-45
2022/11/07 10:56:49;;;;;;;4.22;1.35;;;25.50;94.20;;;;;;5084746;28;20039;-43
2022/11/07 10:59:27;;;;;;;4.20;1.38;;;25.50;94.30;;;;;;5084567;28;20023;-42
2022/11/07 11:01:57;;;;;;;6.28;1.55;;;25.50;94.30;;;;;;5085005;28;20025;-44
2022/11/07 11:04:32;;;;;;;7.18;1.95;;;25.50;94.40;;;;;;5084266;28;20020;-46
2022/11/07 11:07:10;;;;;;;7.35;1.85;;;25.50;94.40;;;;;;5083970;28;20174;-43
2022/11/07 11:09:38;;;;;;;4.10;1.73;;;25.50;94.40;;;;;;5084791;28;20047;-43
2022/11/07 11:12:12;;;;;;;7.30;2.03;;;25.50;94.50;;;;;;5085533;28;20039;-44
2022/11/07 11:14:40;;;;;;;7.78;2.17;;;25.50;94.50;;;;;;5084650;28;20088;-42
2022/11/07 11:17:25;;;;;;;4.85;1.95;;;25.50;94.50;;;;;;5085168;28;20029;-42
2022/11/07 11:19:53;;;;;;;4.18;1.80;;;25.50;94.50;;;;;;5084903;28;20216;-48
2022/11/07 11:22:23;;;;;;;6.22;2.22;;;25.60;94.60;;;;;;5084214;28;20304;-50
2022/11/07 11:25:25;;;;;;;4.80;1.50;;;25.60;94.60;;;;;;5084614;28;20020;-54
2022/11/07 11:28:00;;;;;;;7.82;2.08;;;25.60;94.60;;;;;;5084275;28;20033;-49
2022/11/07 11:30:29;;;;;;;3.92;1.52;;;25.60;94.60;;;;;;5084320;28;20028;-40
2022/11/07 11:33:13;;;;;;;5.80;1.65;;;25.60;94.60;;;;;;5083797;28;20142;-40
2022/11/07 11:35:57;;;;;;;6.45;2.10;;;25.60;94.60;;;;;;5084571;28;20016;-41
2022/11/07 11:38:38;;;;;;;4.20;1.75;;;25.60;94.60;;;;;;5083878;28;20028;-44
2022/11/07 11:41:19;;;;;;;3.72;1.83;;;25.60;94.60;;;;;;5083825;28;20017;-45
2022/11/07 11:43:56;;;;;;;5.95;1.67;;;25.60;94.60;;;;;;5084261;28;20197;-45
2022/11/07 11:46:37;;;;;;;6.25;2.00;;;25.60;94.60;;;;;;5084482;28;20193;-40
2022/11/07 11:49:26;;;;;;;3.33;1.90;;;25.70;94.80;;;;;;5084328;28;20051;-42
2022/11/07 11:51:55;;;;;;;4.43;2.10;;;25.70;94.60;;;;;;5084502;28;20029;-44
2022/11/07 11:54:22;;;;;;;6.13;2.00;;;25.70;94.70;;;;;;5084000;28;20028;-41
2022/11/07 11:57:25;;;;;;;3.13;1.90;;;25.70;94.70;;;;;;5084112;28;20020;-40
2022/11/07 12:00:13;;;;;;;4.22;1.52;;;25.70;94.70;;;;;;5027245;28;20037;-49
2022/11/07 12:03:08;;;;;;;7.78;1.60;;;25.70;94.70;;;;;;5064115;28;20250;-40
2022/11/07 12:05:49;;;;;;;3.88;1.40;;;25.70;94.80;;;;;;5063518;28;20041;-44
2022/11/07 12:08:37;;;;;;;5.10;1.85;;;25.70;94.80;;;;;;5062821;28;20013;-39
2022/11/07 12:11:03;;;;;;;8.73;1.92;;;25.80;94.90;;;;;;5063554;28;20033;-44
2022/11/07 12:13:54;;;;;;;5.43;1.50;;;25.80;94.80;;;;;;5063211;28;20017;-41
2022/11/07 12:16:31;;;;;;;4.13;1.50;;;25.80;94.80;;;;;;5063138;28;20033;-44
2022/11/07 12:18:58;;;;;;;3.47;1.70;;;25.80;94.80;;;;;;5063366;28;20017;-43
2022/11/07 12:21:39;;;;;;;5.75;1.88;;;25.90;94.80;;;;;;5063183;28;20147;-50
2022/11/07 12:24:18;;;;;;;4.45;1.73;;;25.90;94.80;;;;;;5063150;28;20056;-48
2022/11/07 12:27:18;;;;;;;4.78;1.67;;;25.90;94.80;;;;;;5063573;28;20155;-40
2022/11/07 12:30:09;;;;;;;7.57;2.30;;;25.90;94.80;;;;;;5063070;28;20088;-39
2022/11/07 12:32:55;;;;;;;5.38;2.10;;;25.90;94.90;;;;;;5062947;28;20044;-43
2022/11/07 12:35:59;;;;;;;3.67;1.60;;;26.00;94.80;;;;;;5063185;28;20071;-40
2022/11/07 12:38:47;;;;;;;3.35;1.80;;;26.00;94.80;;;;;;5040193;28;20367;-44
2022/11/07 12:41:19;;;;;;;4.82;1.48;;;26.10;94.40;;;;;;5062909;28;20300;-44
2022/11/07 12:44:08;;;;;;;7.33;1.63;;;26.10;94.00;;;;;;5063058;28;20041;-45
2022/11/07 12:46:53;;;;;;;6.95;1.83;;;26.20;94.00;;;;;;5034553;28;20061;-43
2022/11/07 12:49:40;;;;;;;4.85;1.40;;;26.20;94.00;;;;;;5076641;28;20056;-43
2022/11/07 12:52:33;;;;;;;5.35;1.50;;;26.30;93.80;;;;;;5073580;28;20100;-43
2022/11/07 12:55:01;;;;;;;7.88;1.80;;;26.30;93.90;;;;;;5072179;28;20276;-41
2022/11/07 12:57:35;;;;;;;7.65;2.15;;;26.40;93.80;;;;;;5073552;28;20075;-42
2022/11/07 13:00:14;;;;;;;6.75;1.80;;;26.40;93.80;;;;;;5064694;28;20039;-42
2022/11/07 13:03:23;;;;;;;3.85;1.60;;;26.40;94.00;;;;;;5073153;28;20027;-43
2022/11/07 13:06:06;;;;;;;4.38;1.30;;;26.50;94.10;;;;;;5077762;28;20198;-43
2022/11/07 13:08:57;;;;;;;219.13;22.45;;;26.50;94.30;;;;;;5080813;28;20090;-42
2022/11/07 13:11:54;;;;;;;41.30;6.80;;;26.50;94.20;;;;;;5069171;28;20033;-41
2022/11/07 13:14:35;;;;;;;29.67;4.82;;;26.60;94.10;;;;;;5081973;28;20296;-44
2022/11/07 13:17:29;;;;;;;25.73;3.58;;;26.60;94.00;;;;;;5079890;28;20033;-45